Time;durP1;ratioP1;P1;durP2;ratioP2;P2;SDS_P1;SDS_P2;PMS_P1;PMS_P2;Temp;Humidity;BMP_temperature;BMP_pressure;BME280_temperature;BME280_humidity;BME280_pressure;Samples;Min_cycle;Max_cycle;Signal;HPM_P1;HPM_P2
2022/03/03 00:00:18;;;;;;;9.40;5.78;;;-2.30;79.60;-2.90;98483.00;;;;4595595;30;93532;-56
2022/03/03 00:02:45;;;;;;;12.20;5.60;;;-2.20;79.80;-2.90;98484.00;;;;4593188;30;92708;-56
2022/03/03 00:05:12;;;;;;;10.63;4.95;;;-2.20;79.50;-2.80;98480.00;;;;4594200;30;92293;-56
2022/03/03 00:07:39;;;;;;;9.30;5.63;;;-2.10;79.40;-2.70;98467.00;;;;4600696;30;92175;-57
2022/03/03 00:10:08;;;;;;;11.95;5.75;;;-2.00;80.00;-2.70;98466.00;;;;4594981;30;93825;-55
2022/03/03 00:12:34;;;;;;;10.27;5.78;;;-2.00;79.20;-2.80;98456.00;;;;4594817;30;94759;-57
2022/03/03 00:15:01;;;;;;;10.30;5.40;;;-2.00;79.60;-2.80;98463.00;;;;4593888;30;92648;-57
2022/03/03 00:17:28;;;;;;;11.20;5.95;;;-2.10;79.80;-2.90;98461.00;;;;4595198;30;92994;-56
2022/03/03 00:19:54;;;;;;;11.65;5.60;;;-2.20;80.00;-2.90;98446.00;;;;4580134;30;93849;-57
2022/03/03 00:22:20;;;;;;;10.90;5.70;;;-2.20;80.10;-3.00;98453.00;;;;4594839;30;92476;-57
2022/03/03 00:24:48;;;;;;;12.75;6.45;;;-2.30;80.50;-3.10;98449.00;;;;4595497;30;92471;-57
2022/03/03 00:27:15;;;;;;;10.55;6.22;;;-2.40;80.70;-3.20;98437.00;;;;4595746;30;91920;-57
2022/03/03 00:29:41;;;;;;;10.57;5.85;;;-2.50;81.00;-3.20;98442.00;;;;4599814;30;93486;-57
2022/03/03 00:32:07;;;;;;;11.05;5.85;;;-2.50;81.30;-3.20;98439.00;;;;4595436;30;93616;-57
2022/03/03 00:34:34;;;;;;;11.45;5.88;;;-2.50;81.50;-3.30;98431.00;;;;4594459;30;93982;-58
2022/03/03 00:37:00;;;;;;;7.40;5.25;;;-2.60;81.80;-3.40;98429.00;;;;4595167;30;93919;-56
2022/03/03 00:39:26;;;;;;;10.10;6.35;;;-2.70;82.00;-3.40;98423.00;;;;4595076;30;93018;-56
2022/03/03 00:41:52;;;;;;;14.35;5.70;;;-2.70;82.00;-3.50;98413.00;;;;4594751;30;93768;-55
2022/03/03 00:44:18;;;;;;;9.60;5.65;;;-2.70;82.20;-3.50;98416.00;;;;4595340;30;92670;-56
2022/03/03 00:46:44;;;;;;;15.38;5.72;;;-2.80;82.10;-3.60;98416.00;;;;4593851;30;92503;-57
2022/03/03 00:49:10;;;;;;;14.38;6.10;;;-2.90;82.00;-3.60;98417.00;;;;4586749;30;93681;-56
2022/03/03 00:51:36;;;;;;;9.35;5.88;;;-2.90;82.40;-3.70;98415.00;;;;4594634;30;92420;-55
2022/03/03 00:54:03;;;;;;;12.38;5.80;;;-2.90;82.70;-3.60;98406.00;;;;4597724;30;92411;-54
2022/03/03 00:56:29;;;;;;;9.55;5.72;;;-2.90;82.80;-3.60;98408.00;;;;4594301;30;92880;-57
2022/03/03 00:58:55;;;;;;;11.35;6.38;;;-2.90;82.60;-3.60;98405.00;;;;4591110;30;93518;-55
2022/03/03 01:01:21;;;;;;;10.70;6.07;;;-2.80;82.40;-3.50;98397.00;;;;4593849;30;94531;-58
2022/03/03 01:03:47;;;;;;;10.48;5.57;;;-2.70;82.10;-3.40;98399.00;;;;4595132;30;92097;-57
2022/03/03 01:06:14;;;;;;;12.60;5.57;;;-2.70;82.10;-3.40;98397.00;;;;4585335;30;92267;-57
2022/03/03 01:08:40;;;;;;;9.65;6.38;;;-2.70;82.00;-3.40;98398.00;;;;4593517;30;92996;-54
2022/03/03 01:11:07;;;;;;;10.38;6.40;;;-2.70;82.00;-3.40;98392.00;;;;4593600;30;92719;-57
2022/03/03 01:13:34;;;;;;;13.30;6.80;;;-2.60;82.30;-3.40;98386.00;;;;4601506;30;92463;-56
2022/03/03 01:16:00;;;;;;;12.85;6.38;;;-2.70;82.80;-3.50;98392.00;;;;4592698;30;91378;-56
2022/03/03 01:18:26;;;;;;;13.43;6.10;;;-2.80;83.10;-3.50;98396.00;;;;4593706;30;94432;-57
2022/03/03 01:20:54;;;;;;;9.75;6.25;;;-2.90;83.70;-3.60;98391.00;;;;4593921;30;92387;-56
2022/03/03 01:23:21;;;;;;;13.85;6.70;;;-2.90;83.70;-3.70;98391.00;;;;4594731;30;93305;-57
2022/03/03 01:25:47;;;;;;;11.13;7.00;;;-3.00;84.00;-3.80;98378.00;;;;4594526;30;92298;-55
2022/03/03 01:28:13;;;;;;;18.48;7.10;;;-3.10;84.40;-3.80;98381.00;;;;4590156;30;93320;-57
2022/03/03 01:30:39;;;;;;;12.00;6.88;;;-3.10;84.70;-3.90;98372.00;;;;4592340;30;93564;-57
2022/03/03 01:33:06;;;;;;;13.57;6.68;;;-3.20;84.50;-3.90;98366.00;;;;4591141;30;92139;-57
2022/03/03 01:35:33;;;;;;;11.10;6.57;;;-3.20;85.10;-3.90;98364.00;;;;4594344;30;92588;-57
2022/03/03 01:38:00;;;;;;;15.80;6.82;;;-3.20;85.10;-3.90;98361.00;;;;4594245;30;92845;-55
2022/03/03 01:40:26;;;;;;;12.60;6.72;;;-3.20;85.10;-3.90;98364.00;;;;4590512;30;92853;-57
2022/03/03 01:42:53;;;;;;;10.80;7.25;;;-3.20;85.10;-3.90;98350.00;;;;4588789;30;93090;-58
2022/03/03 01:45:19;;;;;;;11.50;7.18;;;-3.10;85.20;-3.90;98357.00;;;;4594799;30;92197;-57
2022/03/03 01:47:45;;;;;;;10.40;7.03;;;-3.20;85.10;-3.90;98353.00;;;;4596094;30;95267;-56
2022/03/03 01:50:12;;;;;;;13.07;7.47;;;-3.20;85.10;-3.90;98346.00;;;;4593895;30;93369;-55
2022/03/03 01:52:38;;;;;;;12.65;7.05;;;-3.20;85.30;-4.00;98351.00;;;;4594809;30;92492;-57
2022/03/03 01:55:05;;;;;;;12.50;6.93;;;-3.20;85.90;-4.00;98335.00;;;;4593413;30;92160;-57
2022/03/03 01:57:31;;;;;;;11.63;6.65;;;-3.20;86.90;-4.00;98345.00;;;;4590842;30;92662;-57
2022/03/03 01:59:59;;;;;;;12.38;7.40;;;-3.20;86.40;-4.10;98335.00;;;;4594690;30;93729;-57
2022/03/03 02:02:27;;;;;;;15.43;7.82;;;-3.30;86.60;-4.10;98338.00;;;;4593034;30;92385;-58
2022/03/03 02:04:54;;;;;;;15.55;8.20;;;-3.30;87.10;-4.10;98328.00;;;;4594123;30;91384;-58
2022/03/03 02:07:21;;;;;;;13.77;7.00;;;-3.30;87.30;-4.10;98326.00;;;;4593328;30;93263;-58
2022/03/03 02:09:47;;;;;;;14.63;7.88;;;-3.30;87.30;-4.10;98330.00;;;;4594197;30;93661;-57
2022/03/03 02:12:13;;;;;;;13.75;8.02;;;-3.30;87.50;-4.20;98331.00;;;;4596500;30;94422;-57
2022/03/03 02:14:46;;;;;;;15.73;8.38;;;-3.40;87.60;-4.20;98318.00;;;;4588805;30;92118;-58
2022/03/03 02:17:13;;;;;;;15.73;8.15;;;-3.50;87.70;-4.20;98331.00;;;;4584117;30;93190;-56
2022/03/03 02:19:39;;;;;;;15.98;8.38;;;-3.50;87.90;-4.30;98311.00;;;;4590505;30;92429;-56
2022/03/03 02:22:05;;;;;;;12.48;8.02;;;-3.50;88.20;-4.30;98313.00;;;;4593879;30;93142;-54
2022/03/03 02:24:31;;;;;;;18.58;8.60;;;-3.60;88.40;-4.40;98308.00;;;;4593586;30;92143;-56
2022/03/03 02:27:01;;;;;;;16.17;8.68;;;-3.70;89.00;-4.50;98320.00;;;;4593688;30;93964;-56
2022/03/03 02:29:29;;;;;;;18.42;8.70;;;-3.80;89.50;-4.60;98313.00;;;;4596861;30;92154;-56
2022/03/03 02:31:55;;;;;;;16.00;8.13;;;-3.90;89.80;-4.60;98310.00;;;;4600283;30;92452;-56
2022/03/03 02:34:22;;;;;;;13.88;7.90;;;-3.90;90.20;-4.60;98316.00;;;;4596723;30;92664;-54
2022/03/03 02:36:48;;;;;;;14.20;7.75;;;-3.80;89.80;-4.50;98308.00;;;;4591364;30;93684;-57
2022/03/03 02:39:14;;;;;;;14.88;8.35;;;-3.80;89.50;-4.50;98315.00;;;;4596643;30;93937;-58
2022/03/03 02:41:40;;;;;;;20.13;8.57;;;-3.80;89.60;-4.60;98306.00;;;;4596971;30;93426;-58
2022/03/03 02:44:06;;;;;;;18.02;8.27;;;-3.90;89.60;-4.70;98311.00;;;;4596586;30;92384;-57
2022/03/03 02:46:32;;;;;;;14.98;8.15;;;-4.00;89.60;-4.90;98312.00;;;;4595930;30;93227;-58
2022/03/03 02:48:59;;;;;;;15.73;8.35;;;-4.10;90.00;-5.00;98298.00;;;;4592927;30;92486;-53
2022/03/03 02:51:25;;;;;;;16.55;8.35;;;-4.20;90.20;-5.00;98305.00;;;;4596110;30;92074;-57
2022/03/03 02:53:51;;;;;;;15.93;8.05;;;-4.20;90.20;-5.00;98307.00;;;;4588516;30;92630;-58
2022/03/03 02:56:18;;;;;;;17.33;8.45;;;-4.20;90.40;-5.00;98306.00;;;;4596376;30;92764;-58
2022/03/03 02:58:44;;;;;;;17.92;8.88;;;-4.20;90.50;-4.90;98299.00;;;;4592707;30;92998;-58
2022/03/03 03:01:11;;;;;;;17.90;8.63;;;-4.10;90.50;-4.80;98291.00;;;;4595716;30;93864;-58
2022/03/03 03:03:38;;;;;;;13.60;8.30;;;-4.10;90.40;-4.80;98296.00;;;;4596584;30;92149;-58
2022/03/03 03:06:05;;;;;;;20.10;7.72;;;-4.10;90.20;-4.90;98284.00;;;;4594882;30;95272;-58
2022/03/03 03:08:31;;;;;;;16.25;8.57;;;-4.20;90.40;-5.00;98275.00;;;;4591912;30;92328;-57
2022/03/03 03:10:57;;;;;;;14.25;8.50;;;-4.20;90.40;-5.10;98281.00;;;;4589048;30;92119;-57
2022/03/03 03:13:23;;;;;;;16.38;8.73;;;-4.20;90.50;-5.20;98270.00;;;;4596468;30;92230;-60
2022/03/03 03:15:50;;;;;;;17.70;8.07;;;-4.30;90.60;-5.20;98274.00;;;;4595299;30;92736;-61
2022/03/03 03:18:21;;;;;;;17.40;8.15;;;-4.40;90.80;-5.20;98264.00;;;;4597990;30;92358;-61
2022/03/03 03:20:51;;;;;;;16.60;7.85;;;-4.40;91.10;-5.20;98265.00;;;;4595064;30;92553;-60
2022/03/03 03:23:20;;;;;;;20.00;7.80;;;-4.50;91.00;-5.30;98257.00;;;;4596116;30;92222;-61
2022/03/03 03:25:47;;;;;;;13.93;7.38;;;-4.50;91.20;-5.30;98265.00;;;;4588546;30;93222;-61
2022/03/03 03:28:15;;;;;;;15.23;8.52;;;-4.50;91.30;-5.40;98249.00;;;;4600656;30;94429;-60
2022/03/03 03:30:42;;;;;;;14.65;7.63;;;-4.60;91.40;-5.40;98254.00;;;;4596387;30;92877;-61
2022/03/03 03:33:08;;;;;;;13.02;7.20;;;-4.60;91.50;-5.40;98260.00;;;;4585885;30;93586;-61
2022/03/03 03:35:35;;;;;;;16.10;7.47;;;-4.60;91.40;-5.40;98258.00;;;;4591213;30;92774;-61
2022/03/03 03:38:02;;;;;;;19.38;8.10;;;-4.60;91.50;-5.50;98249.00;;;;4596038;30;92268;-61
2022/03/03 03:40:28;;;;;;;17.92;8.18;;;-4.60;91.40;-5.50;98243.00;;;;4597798;30;92712;-61
2022/03/03 03:42:55;;;;;;;14.55;7.40;;;-4.60;91.70;-5.50;98251.00;;;;4588647;30;92153;-60
2022/03/03 03:45:21;;;;;;;12.73;6.50;;;-4.60;91.60;-5.50;98242.00;;;;4594103;30;92366;-61
2022/03/03 03:47:47;;;;;;;14.65;7.25;;;-4.60;91.50;-5.50;98244.00;;;;4595279;30;92434;-61
2022/03/03 03:50:14;;;;;;;14.43;6.78;;;-4.70;91.40;-5.60;98247.00;;;;4595351;30;93163;-60
2022/03/03 03:52:41;;;;;;;11.98;6.85;;;-4.70;91.40;-5.60;98247.00;;;;4596446;30;92358;-61
2022/03/03 03:55:10;;;;;;;13.70;7.00;;;-4.70;91.40;-5.60;98241.00;;;;4595299;30;93279;-60
2022/03/03 03:57:38;;;;;;;12.43;6.97;;;-4.80;91.40;-5.60;98242.00;;;;4595067;30;92441;-60
2022/03/03 04:00:10;;;;;;;17.25;7.93;;;-4.80;91.50;-5.60;98240.00;;;;4595146;30;92114;-60
2022/03/03 04:02:42;;;;;;;17.70;7.43;;;-4.80;91.80;-5.60;98227.00;;;;4595785;30;92377;-61
2022/03/03 04:05:09;;;;;;;20.08;7.57;;;-4.80;91.70;-5.50;98230.00;;;;4595451;30;93059;-62
2022/03/03 04:07:35;;;;;;;17.77;7.00;;;-4.70;91.50;-5.50;98226.00;;;;4595603;30;92474;-61
2022/03/03 04:10:03;;;;;;;20.40;8.38;;;-4.60;91.40;-5.50;98236.00;;;;4591564;30;93073;-61
2022/03/03 04:12:29;;;;;;;23.40;8.48;;;-4.60;91.40;-5.60;98230.00;;;;4594383;30;92204;-60
2022/03/03 04:14:55;;;;;;;17.88;7.78;;;-4.70;91.50;-5.60;98237.00;;;;4595081;30;93635;-61
2022/03/03 04:17:21;;;;;;;20.33;8.23;;;-4.80;91.50;-5.70;98223.00;;;;4594327;30;94323;-61
2022/03/03 04:19:47;;;;;;;18.77;8.23;;;-4.80;91.80;-5.70;98234.00;;;;4592578;30;93219;-61
2022/03/03 04:22:14;;;;;;;15.50;7.93;;;-4.90;91.70;-5.70;98220.00;;;;4595371;30;92226;-60
2022/03/03 04:24:40;;;;;;;19.40;7.32;;;-4.90;91.70;-5.60;98221.00;;;;4594485;30;92218;-60
2022/03/03 04:27:06;;;;;;;20.02;7.40;;;-4.90;91.70;-5.40;98222.00;;;;4593810;30;93121;-60
2022/03/03 04:29:33;;;;;;;24.90;8.68;;;-4.80;91.70;-5.20;98219.00;;;;4595342;30;92054;-61
2022/03/03 04:31:59;;;;;;;19.20;7.53;;;-4.70;91.80;-4.80;98217.00;;;;4595479;30;92899;-62
2022/03/03 04:34:25;;;;;;;16.60;7.43;;;-4.50;91.50;-4.50;98216.00;;;;4589637;30;94427;-61
2022/03/03 04:36:53;;;;;;;19.08;7.60;;;-4.40;91.20;-4.20;98216.00;;;;4594779;30;93179;-62
2022/03/03 04:39:19;;;;;;;16.67;7.38;;;-4.20;90.80;-3.90;98217.00;;;;4591678;30;93523;-61
2022/03/03 04:41:46;;;;;;;22.38;7.90;;;-3.90;90.60;-3.50;98216.00;;;;4592601;30;92549;-59
2022/03/03 04:44:12;;;;;;;25.48;7.40;;;-3.70;90.00;-3.30;98211.00;;;;4577806;30;92784;-62
2022/03/03 04:46:38;;;;;;;16.13;7.07;;;-3.50;89.60;-3.10;98228.00;;;;4594556;30;93748;-61
2022/03/03 04:49:05;;;;;;;23.52;8.13;;;-3.40;88.60;-3.00;98219.00;;;;4594890;30;93051;-61
2022/03/03 04:51:36;;;;;;;23.13;9.68;;;-3.30;88.40;-2.80;98219.00;;;;4594804;30;92115;-61
2022/03/03 04:54:07;;;;;;;32.95;7.75;;;-3.20;88.10;-2.60;98221.00;;;;4595079;30;94681;-61
2022/03/03 04:56:36;;;;;;;24.15;8.07;;;-3.10;87.90;-2.40;98218.00;;;;4591588;30;91576;-61
2022/03/03 04:59:03;;;;;;;21.77;7.93;;;-3.00;87.40;-2.20;98220.00;;;;4594289;30;93173;-60
2022/03/03 05:01:30;;;;;;;28.63;9.48;;;-2.80;86.90;-2.10;98216.00;;;;4594218;30;93363;-60
2022/03/03 05:03:56;;;;;;;21.90;7.63;;;-2.70;86.70;-2.20;98216.00;;;;4591395;30;94684;-60
2022/03/03 05:06:22;;;;;;;17.23;7.25;;;-2.60;85.70;-2.60;98217.00;;;;4593929;30;93396;-60
2022/03/03 05:08:48;;;;;;;13.70;7.35;;;-2.70;85.60;-3.00;98220.00;;;;4594543;30;92557;-60
2022/03/03 05:11:15;;;;;;;18.42;6.90;;;-2.80;85.50;-3.20;98208.00;;;;4592244;30;92592;-60
2022/03/03 05:13:41;;;;;;;16.30;7.28;;;-2.80;86.30;-3.30;98202.00;;;;4597553;30;92946;-61
2022/03/03 05:16:08;;;;;;;18.80;7.15;;;-2.80;86.90;-3.50;98199.00;;;;4593563;30;93119;-60
2022/03/03 05:18:34;;;;;;;23.38;7.95;;;-2.90;87.50;-3.60;98207.00;;;;4594568;30;93242;-60
2022/03/03 05:21:00;;;;;;;15.02;7.43;;;-3.00;87.20;-3.60;98196.00;;;;4593378;30;91344;-62
2022/03/03 05:23:26;;;;;;;15.70;8.27;;;-3.00;87.30;-3.70;98211.00;;;;4591883;30;93339;-61
2022/03/03 05:25:52;;;;;;;15.35;7.10;;;-3.10;87.90;-3.70;98212.00;;;;4593769;30;92610;-61
2022/03/03 05:28:20;;;;;;;12.80;7.10;;;-3.00;88.00;-3.60;98216.00;;;;4593969;30;93428;-61
2022/03/03 05:30:46;;;;;;;12.43;6.55;;;-3.00;88.00;-3.50;98207.00;;;;4593851;30;92238;-61
2022/03/03 05:33:12;;;;;;;16.77;5.82;;;-2.90;88.40;-3.50;98198.00;;;;4574712;30;95262;-55
2022/03/03 05:35:40;;;;;;;13.82;6.65;;;-2.80;88.50;-3.40;98207.00;;;;4593447;30;92416;-57
2022/03/03 05:38:06;;;;;;;12.73;5.97;;;-2.80;88.50;-3.30;98215.00;;;;4594127;30;92751;-57
2022/03/03 05:40:32;;;;;;;16.55;6.13;;;-2.70;88.60;-3.30;98216.00;;;;4594417;30;92172;-56
2022/03/03 05:42:58;;;;;;;16.55;6.13;;;-2.60;88.80;-3.20;98206.00;;;;4593437;30;92755;-55
2022/03/03 05:45:25;;;;;;;15.85;6.10;;;-2.50;88.80;-3.10;98214.00;;;;4586988;30;94006;-57
2022/03/03 05:47:52;;;;;;;16.30;6.70;;;-2.40;88.50;-3.00;98212.00;;;;4592257;30;92475;-56
2022/03/03 05:50:18;;;;;;;15.88;7.40;;;-2.30;88.40;-2.80;98207.00;;;;4591861;30;92184;-58
2022/03/03 05:52:44;;;;;;;18.20;6.93;;;-2.20;88.30;-2.80;98199.00;;;;4593073;30;93701;-58
2022/03/03 05:55:11;;;;;;;19.08;7.22;;;-2.10;88.50;-2.60;98204.00;;;;4594512;30;92633;-55
2022/03/03 05:57:48;;;;;;;17.05;6.78;;;-2.00;88.00;-2.50;98198.00;;;;4591132;30;93746;-56
2022/03/03 06:00:17;;;;;;;19.05;7.25;;;-1.90;87.70;-2.40;98197.00;;;;4594051;30;92700;-56
2022/03/03 06:02:55;;;;;;;17.17;6.03;;;-1.80;87.50;-2.20;98187.00;;;;4591728;30;93861;-56
2022/03/03 06:05:27;;;;;;;30.23;7.13;;;-1.60;86.70;-2.20;98191.00;;;;4592578;30;92349;-54
2022/03/03 06:07:56;;;;;;;;;;;-1.50;86.80;-2.10;98197.00;;;;4594909;30;92203;-55
2022/03/03 06:10:25;;;;;;;20.45;7.47;;;-1.40;86.30;-2.00;98184.00;;;;4594525;30;91622;-56
2022/03/03 06:13:25;;;;;;;22.85;6.95;;;-1.30;86.00;-1.90;98184.00;;;;4592776;30;92754;-56
2022/03/03 06:15:52;;;;;;;27.40;7.82;;;-1.20;85.60;-1.80;98178.00;;;;4594845;30;93412;-58
2022/03/03 06:18:26;;;;;;;23.58;8.20;;;-1.20;85.30;-1.70;98183.00;;;;4591777;30;93616;-56
2022/03/03 06:20:54;;;;;;;20.98;7.20;;;-1.10;85.30;-1.70;98183.00;;;;4591126;30;92658;-56
2022/03/03 06:23:21;;;;;;;18.92;7.35;;;-1.00;85.20;-1.60;98183.00;;;;4593474;30;93176;-57
2022/03/03 06:26:03;;;;;;;25.45;7.32;;;-0.90;84.70;-1.50;98177.00;;;;4587328;30;93058;-56
2022/03/03 06:28:30;;;;;;;24.08;7.28;;;-0.80;84.90;-1.40;98174.00;;;;4592993;30;92452;-58
2022/03/03 06:30:57;;;;;;;23.17;7.20;;;-0.80;85.00;-1.30;98169.00;;;;4592871;30;92547;-57
2022/03/03 06:33:25;;;;;;;20.67;7.22;;;-0.70;84.30;-1.30;98164.00;;;;4592937;30;92727;-57
2022/03/03 06:35:51;;;;;;;13.50;7.38;;;-0.60;84.20;-1.20;98164.00;;;;4592738;30;92519;-57
2022/03/03 06:38:18;;;;;;;20.65;7.68;;;-0.60;84.20;-1.10;98157.00;;;;4592645;30;93273;-55
2022/03/03 06:40:44;;;;;;;20.38;7.10;;;-0.60;84.30;-1.10;98159.00;;;;4592476;30;92222;-56
2022/03/03 06:43:11;;;;;;;18.70;6.85;;;-0.50;83.90;-1.00;98157.00;;;;4584758;30;94900;-56
2022/03/03 06:45:37;;;;;;;24.77;7.72;;;-0.40;83.80;-0.90;98154.00;;;;4590639;30;93332;-54
2022/03/03 06:48:04;;;;;;;18.60;7.22;;;-0.30;83.50;-0.80;98162.00;;;;4592404;30;92088;-55
2022/03/03 06:50:36;;;;;;;16.92;7.32;;;-0.20;83.20;-0.70;98152.00;;;;4592978;30;92810;-59
2022/03/03 06:53:04;;;;;;;21.08;7.50;;;-0.10;82.90;-0.60;98151.00;;;;4593231;30;92591;-54
2022/03/03 06:55:31;;;;;;;23.17;8.30;;;-0.10;83.30;-0.60;98151.00;;;;4590490;30;92679;-61
2022/03/03 06:57:58;;;;;;;17.70;7.65;;;-0.10;83.40;-0.60;98154.00;;;;4590861;30;92786;-61
2022/03/03 07:00:28;;;;;;;22.42;8.38;;;-0.10;83.20;-0.50;98161.00;;;;4590054;30;91454;-61
2022/03/03 07:02:55;;;;;;;21.63;7.53;;;0.00;83.00;-0.40;98153.00;;;;4591282;30;92727;-61
2022/03/03 07:05:22;;;;;;;21.05;7.75;;;0.10;83.00;-0.30;98153.00;;;;4589442;30;92688;-61
2022/03/03 07:07:52;;;;;;;22.55;8.07;;;0.20;82.70;-0.20;98139.00;;;;4589251;30;94532;-56
2022/03/03 07:10:25;;;;;;;18.27;7.47;;;0.30;82.70;-0.20;98154.00;;;;4592945;30;92221;-61
2022/03/03 07:12:56;;;;;;;23.42;8.48;;;0.40;82.80;-0.10;98141.00;;;;4585355;30;95161;-61
2022/03/03 07:15:24;;;;;;;;;;;0.50;82.70;0.00;98144.00;;;;4577020;30;93807;-61
2022/03/03 07:18:02;;;;;;;19.27;8.23;;;0.60;82.60;0.00;98152.00;;;;4595241;30;93347;-60
2022/03/03 07:21:06;;;;;;;25.63;8.43;;;0.60;82.60;0.20;98152.00;;;;4595874;30;92476;-61
2022/03/03 07:23:46;;;;;;;30.45;8.15;;;0.80;82.50;0.30;98147.00;;;;4591172;30;92708;-60
2022/03/03 07:26:15;;;;;;;19.45;8.20;;;0.90;82.50;0.40;98145.00;;;;4602139;30;92327;-60
2022/03/03 07:28:51;;;;;;;14.00;7.68;;;1.00;82.40;0.50;98139.00;;;;4595478;30;93380;-61
2022/03/03 07:31:23;;;;;;;19.92;8.48;;;1.10;82.00;0.60;98137.00;;;;4594660;30;92158;-61
2022/03/03 07:33:56;;;;;;;23.52;8.00;;;1.20;81.50;0.70;98137.00;;;;4594550;30;94164;-60
2022/03/03 07:36:27;;;;;;;26.83;8.05;;;1.30;81.70;0.90;98133.00;;;;4593229;30;93295;-61
2022/03/03 07:39:02;;;;;;;19.30;7.60;;;1.40;81.80;0.90;98137.00;;;;4596039;30;92561;-61
2022/03/03 07:41:29;;;;;;;21.95;7.93;;;1.50;81.30;1.00;98134.00;;;;4596474;30;92116;-61
2022/03/03 07:43:58;;;;;;;22.45;7.50;;;1.60;81.10;1.20;98134.00;;;;4595153;30;92115;-60
2022/03/03 07:46:26;;;;;;;17.88;7.93;;;1.70;81.10;1.30;98131.00;;;;4594958;30;92938;-61
2022/03/03 07:48:53;;;;;;;15.38;7.07;;;1.80;81.10;1.30;98129.00;;;;4595821;30;92002;-61
2022/03/03 07:51:20;;;;;;;15.98;8.35;;;1.80;81.20;1.40;98135.00;;;;4596289;30;91541;-61
2022/03/03 07:53:49;;;;;;;16.58;7.68;;;1.90;81.70;1.50;98131.00;;;;4591856;30;93633;-60
2022/03/03 07:56:26;;;;;;;17.50;7.13;;;2.00;81.40;1.60;98136.00;;;;4594513;30;92631;-60
2022/03/03 07:59:11;;;;;;;14.98;7.43;;;2.10;79.70;1.70;98122.00;;;;4590030;30;93178;-61
2022/03/03 08:01:39;;;;;;;13.65;8.02;;;2.20;79.70;1.80;98124.00;;;;4597688;30;92621;-61
2022/03/03 08:04:05;;;;;;;28.42;9.35;;;2.30;80.10;1.90;98127.00;;;;4593036;30;93802;-61
2022/03/03 08:06:32;;;;;;;22.05;8.20;;;2.30;81.10;2.00;98128.00;;;;4595240;30;92445;-61
2022/03/03 08:09:02;;;;;;;20.77;8.13;;;2.40;80.70;2.10;98138.00;;;;4595639;30;93800;-61
2022/03/03 08:11:29;;;;;;;21.77;8.27;;;2.50;80.10;2.10;98127.00;;;;4594829;30;92388;-61
2022/03/03 08:13:56;;;;;;;27.80;9.27;;;2.60;80.10;2.20;98128.00;;;;4594875;30;92648;-61
2022/03/03 08:16:24;;;;;;;24.30;8.98;;;2.60;80.10;2.30;98123.00;;;;4594936;30;92808;-60
2022/03/03 08:18:50;;;;;;;20.98;8.63;;;2.70;80.30;2.30;98120.00;;;;4593465;30;92642;-60
2022/03/03 08:21:17;;;;;;;29.83;8.98;;;2.60;80.80;2.30;98116.00;;;;4594903;30;92593;-60
2022/03/03 08:23:43;;;;;;;23.70;8.65;;;2.70;81.70;2.30;98112.00;;;;4593879;30;94703;-61
2022/03/03 08:26:12;;;;;;;20.90;8.60;;;2.70;82.40;2.40;98111.00;;;;4595007;30;93338;-61
2022/03/03 08:28:41;;;;;;;16.63;8.48;;;2.80;82.20;2.50;98110.00;;;;4593271;30;92383;-61
2022/03/03 08:31:09;;;;;;;16.40;8.00;;;2.80;82.60;2.50;98114.00;;;;4589411;30;93034;-61
2022/03/03 08:33:57;;;;;;;18.60;7.88;;;2.80;82.60;2.50;98110.00;;;;4592595;30;93674;-61
2022/03/03 08:37:00;;;;;;;23.00;8.45;;;2.80;81.00;2.60;98111.00;;;;4592547;30;92603;-61
2022/03/03 08:39:28;;;;;;;16.95;8.55;;;2.90;81.70;2.60;98111.00;;;;4572042;30;92235;-63
2022/03/03 08:42:00;;;;;;;27.15;9.02;;;3.00;80.60;2.60;98120.00;;;;4600330;30;91850;-62
2022/03/03 08:44:31;;;;;;;;;;;3.00;82.70;2.70;98120.00;;;;4594480;30;93039;-62
2022/03/03 08:48:02;;;;;;;18.15;8.60;;;3.10;81.50;2.70;98119.00;;;;4986063;28;81542;-61
2022/03/03 08:50:31;;;;;;;14.93;8.52;;;3.20;81.00;2.80;98121.00;;;;4966896;28;81673;-60
2022/03/03 08:52:59;;;;;;;19.25;8.88;;;3.20;80.70;2.80;98127.00;;;;4964489;28;82661;-60
2022/03/03 08:55:27;;;;;;;20.13;8.02;;;3.20;80.70;2.90;98114.00;;;;4964699;28;83210;-60
2022/03/03 08:57:54;;;;;;;15.38;6.72;;;3.30;81.00;3.00;98114.00;;;;4965130;28;82802;-60
2022/03/03 09:00:21;;;;;;;21.48;7.43;;;3.30;79.30;3.00;98123.00;;;;4965908;28;81546;-60
2022/03/03 09:02:50;;;;;;;16.27;6.75;;;3.40;81.00;3.00;98105.00;;;;4960282;28;83300;-61
2022/03/03 09:05:16;;;;;;;13.65;7.07;;;3.40;79.70;3.00;98115.00;;;;4965540;28;82587;-61
2022/03/03 09:07:43;;;;;;;14.20;6.55;;;3.40;78.50;3.10;98113.00;;;;4967991;28;83446;-60
2022/03/03 09:10:09;;;;;;;16.13;7.40;;;3.50;79.50;3.10;98120.00;;;;4968888;28;81859;-60
2022/03/03 09:12:36;;;;;;;18.20;7.18;;;3.50;79.20;3.20;98106.00;;;;4970729;28;81573;-61
2022/03/03 09:15:04;;;;;;;20.67;7.30;;;3.60;79.20;3.40;98113.00;;;;4967446;28;83243;-61
2022/03/03 09:17:30;;;;;;;17.55;7.68;;;3.70;79.20;3.40;98101.00;;;;4967877;28;81947;-60
2022/03/03 09:19:56;;;;;;;19.42;7.55;;;3.70;79.10;3.40;98111.00;;;;4960294;28;82047;-60
2022/03/03 09:22:22;;;;;;;16.92;7.20;;;3.80;79.10;3.40;98099.00;;;;4968157;28;82210;-60
2022/03/03 09:24:48;;;;;;;13.98;6.80;;;3.80;79.20;3.50;98114.00;;;;4952933;28;85132;-61
2022/03/03 09:27:14;;;;;;;18.63;7.60;;;3.80;79.60;3.50;98110.00;;;;4967928;28;83233;-61
2022/03/03 09:29:41;;;;;;;14.38;6.80;;;3.80;78.70;3.50;98095.00;;;;4966827;28;81828;-61
2022/03/03 09:32:09;;;;;;;14.80;6.90;;;3.80;77.70;3.60;98100.00;;;;4963920;28;82822;-61
2022/03/03 09:34:35;;;;;;;16.00;6.60;;;3.90;77.40;3.60;98104.00;;;;4966064;28;82456;-61
2022/03/03 09:37:01;;;;;;;11.07;5.85;;;3.80;77.70;3.50;98106.00;;;;4961926;28;83422;-61
2022/03/03 09:39:27;;;;;;;10.35;5.65;;;3.80;76.40;3.40;98114.00;;;;4979231;28;82046;-61
2022/03/03 09:41:53;;;;;;;9.90;5.53;;;3.70;76.60;3.40;98086.00;;;;4960972;28;81671;-59
2022/03/03 09:44:24;;;;;;;9.18;5.72;;;3.60;76.70;3.40;98096.00;;;;4966874;28;82118;-60
2022/03/03 09:46:50;;;;;;;11.45;5.88;;;3.70;77.10;3.50;98098.00;;;;4970503;28;81902;-60
2022/03/03 09:49:18;;;;;;;9.23;5.15;;;3.80;76.90;3.50;98091.00;;;;4971009;28;81759;-61
2022/03/03 09:51:47;;;;;;;13.90;5.50;;;3.90;75.10;3.60;98095.00;;;;4967773;28;81846;-60
2022/03/03 09:54:14;;;;;;;11.15;6.38;;;3.90;75.00;3.60;98100.00;;;;4971497;28;82286;-61
2022/03/03 09:56:40;;;;;;;13.30;6.45;;;3.90;75.10;3.60;98093.00;;;;4965827;28;82193;-62
2022/03/03 09:59:10;;;;;;;14.55;6.15;;;3.90;75.10;3.60;98089.00;;;;4953768;28;82711;-62
2022/03/03 10:01:36;;;;;;;15.85;7.22;;;3.90;75.50;3.70;98094.00;;;;4948068;28;81681;-61
2022/03/03 10:04:24;;;;;;;16.42;7.63;;;4.00;75.80;3.70;98080.00;;;;4954519;28;82848;-57
2022/03/03 10:06:51;;;;;;;16.35;8.10;;;4.10;78.10;3.90;98071.00;;;;4952887;28;83304;-58
2022/03/03 10:09:19;;;;;;;21.60;7.60;;;4.10;77.10;3.90;98088.00;;;;4956011;28;81708;-57
2022/03/03 10:12:07;;;;;;;16.83;7.30;;;4.20;77.20;3.90;98082.00;;;;4949101;28;81824;-55
2022/03/03 10:14:36;;;;;;;14.93;7.60;;;4.20;76.40;3.90;98067.00;;;;4947364;28;83564;-57
2022/03/03 10:17:05;;;;;;;14.00;7.43;;;4.10;76.30;3.80;98069.00;;;;4951740;28;83310;-53
2022/03/03 10:19:33;;;;;;;15.52;7.18;;;4.00;75.90;3.80;98076.00;;;;4945898;28;82292;-55
2022/03/03 10:21:59;;;;;;;16.38;7.50;;;4.00;75.20;3.80;98076.00;;;;4959925;28;82883;-56
2022/03/03 10:24:30;;;;;;;12.63;7.10;;;4.00;75.00;3.80;98060.00;;;;4957923;28;81726;-57
2022/03/03 10:27:07;;;;;;;12.57;7.50;;;4.10;74.80;3.90;98060.00;;;;4949311;28;81862;-52
2022/03/03 10:29:35;;;;;;;13.07;6.55;;;4.10;75.30;3.90;98068.00;;;;4959398;28;82624;-54
2022/03/03 10:32:04;;;;;;;11.73;6.47;;;4.10;74.30;3.90;98064.00;;;;4954800;28;81497;-54
2022/03/03 10:34:33;;;;;;;21.77;7.22;;;4.10;73.20;3.80;98070.00;;;;4956162;28;83915;-55
2022/03/03 10:37:03;;;;;;;11.25;6.80;;;4.00;73.40;3.80;98071.00;;;;4949503;28;82656;-54
2022/03/03 10:39:39;;;;;;;14.13;6.05;;;4.00;72.70;3.80;98064.00;;;;4953077;28;81622;-57
2022/03/03 10:42:18;;;;;;;12.63;5.93;;;4.00;72.70;3.80;98066.00;;;;4952654;28;82102;-57
2022/03/03 10:44:44;;;;;;;11.82;6.10;;;4.00;72.70;3.80;98068.00;;;;4956676;28;82333;-55
2022/03/03 10:47:24;;;;;;;9.13;4.97;;;4.00;72.70;3.80;98063.00;;;;4950791;28;82387;-56
2022/03/03 10:49:54;;;;;;;9.45;5.30;;;4.00;70.50;3.80;98060.00;;;;4946258;28;81765;-53
2022/03/03 10:52:25;;;;;;;10.85;5.47;;;4.00;70.50;3.80;98056.00;;;;4957241;28;82257;-57
2022/03/03 10:55:13;;;;;;;12.55;5.80;;;4.00;71.30;3.90;98064.00;;;;4954204;28;83263;-56
2022/03/03 10:57:56;;;;;;;11.43;5.45;;;4.10;71.00;4.00;98049.00;;;;4943203;28;82614;-57